This is the latest recevied weather packets stored in our database for station/object LROP. If no packets are shown the sender has not sent any weather packets the latest 10 day(s).
| Time | Temp. | Humidity | Pressure | Rain* | Wind** | Luminosity | Snow |
|---|---|---|---|---|---|---|---|
| 1777363383 | 15° C | 45% | 1019 hPa | - | - | - | - |
| 1777362482 | 13.89° C | 55% | 1019 hPa | - | - | - | - |
| 1777361583 | 13.89° C | 55% | 1019 hPa | - | - | - | - |
| 1777360682 | 12.78° C | 59% | 1019 hPa | - | - | - | - |
| 1777359782 | 12.78° C | 59% | 1019 hPa | - | - | - | - |
| 1777358882 | 11.11° C | 62% | 1019 hPa | - | - | - | - |
| 1777358004 | 11.11° C | 62% | 1019 hPa | - | - | - | - |
| 1777357083 | 10° C | 67% | 1019 hPa | - | - | - | - |
| 1777356182 | 10° C | 67% | 1019 hPa | - | - | - | - |
| 1777355308 | 8.89° C | 71% | 1019 hPa | - | - | - | - |
| 1777354382 | 8.89° C | 71% | 1019 hPa | - | - | - | - |
| 1777353501 | 7.22° C | 76% | 1019 hPa | - | - | - | - |
| 1777352592 | 7.22° C | 76% | 1019 hPa | - | - | - | - |
| 1777351682 | 6.11° C | 81% | 1019 hPa | - | - | - | - |
| 1777350856 | 6.11° C | 81% | 1019 hPa | - | - | - | - |
| 1777349882 | 6.11° C | 81% | 1019 hPa | - | - | - | - |
| 1777348982 | 6.11° C | 81% | 1019 hPa | - | - | - | - |
| 1777348082 | 3.89° C | 93% | 1019 hPa | - | - | - | - |
| 1777347182 | 3.89° C | 93% | 1019 hPa | - | - | - | - |
| 1777346282 | 3.89° C | 87% | 1019 hPa | - | - | - | - |
| 1777345386 | 3.89° C | 87% | 1019 hPa | - | - | - | - |
| 1777344482 | 3.89° C | 87% | 1019 hPa | - | - | - | - |
| 1777343582 | 3.89° C | 87% | 1019 hPa | - | - | - | - |
| 1777341782 | 5° C | 87% | 1019 hPa | - | - | - | - |
| 1777340882 | 5° C | 81% | 1019 hPa | - | - | - | - |
* Rain since midnight (hover to see other rain measurements)
** Current wind speed in m/s (hover to see current wind gust speed)